Time;durP1;ratioP1;P1;durP2;ratioP2;P2;SDS_P1;SDS_P2;PMS_P1;PMS_P2;Temp;Humidity;BMP_temperature;BMP_pressure;BME280_temperature;BME280_humidity;BME280_pressure;Samples;Min_cycle;Max_cycle;Signal;HPM_P1;HPM_P2
2021/01/15 00:02:01;;;;;;;1999.90;999.90;;;0.60;99.90;;;;;;6161770;23;20485;-96
2021/01/15 00:04:31;;;;;;;1999.90;999.90;;;0.60;99.90;;;;;;6167592;23;20021;-96
2021/01/15 00:07:12;;;;;;;1999.90;999.90;;;0.60;99.90;;;;;;6228563;23;20172;-96
2021/01/15 00:09:56;;;;;;;1999.90;999.90;;;0.70;99.90;;;;;;6260740;23;20020;-96
2021/01/15 00:12:33;;;;;;;1999.90;999.90;;;0.70;99.90;;;;;;6261652;23;20035;-96
2021/01/15 00:19:33;;;;;;;1999.90;999.90;;;0.80;99.90;;;;;;6194883;23;20051;-96
2021/01/15 00:26:06;;;;;;;;;;;;;;;;;;;;;
2021/01/15 00:40:21;;;;;;;1999.90;999.90;;;1.00;99.90;;;;;;6065824;23;20040;-96
2021/01/15 00:42:56;;;;;;;1999.90;999.90;;;1.00;99.90;;;;;;6168203;23;20033;-96
2021/01/15 00:48:31;;;;;;;1999.90;999.90;;;1.10;99.90;;;;;;6221490;23;20013;-96
2021/01/15 00:54:18;;;;;;;1999.90;999.90;;;1.10;99.90;;;;;;6182080;23;20056;-94
2021/01/15 00:57:19;;;;;;;;;;;;;;;;;;;;;
2021/01/15 01:15:04;;;;;;;1999.90;999.90;;;1.10;99.90;;;;;;6205365;22;20020;-96
2021/01/15 01:17:57;;;;;;;1999.90;999.90;;;1.10;99.90;;;;;;6208239;23;20005;-96
2021/01/15 01:20:54;;;;;;;;;;;;;;;;;;;;;
2021/01/15 01:24:09;;;;;;;1999.90;999.90;;;1.10;99.90;;;;;;6173649;23;20055;-96
2021/01/15 01:44:52;;;;;;;1999.90;999.90;;;1.20;99.90;;;;;;6158820;23;20020;-96
2021/01/15 01:48:06;;;;;;;1999.90;999.90;;;1.10;99.90;;;;;;6204115;23;20032;-96
2021/01/15 02:13:30;;;;;;;1999.90;999.90;;;1.20;99.90;;;;;;6059208;23;20071;-96
2021/01/15 02:20:17;;;;;;;1999.90;999.90;;;1.20;99.90;;;;;;6090479;23;20026;-96
2021/01/15 02:56:44;;;;;;;1999.90;999.90;;;1.30;99.90;;;;;;6005175;24;20123;-96
2021/01/15 03:03:29;;;;;;;1999.90;999.90;;;1.40;99.90;;;;;;6004281;23;20372;-96
2021/01/15 03:56:26;;;;;;;1999.90;999.90;;;1.60;99.90;;;;;;6284477;22;20049;-96
2021/01/15 03:59:02;;;;;;;1999.90;999.90;;;1.60;99.90;;;;;;6286291;22;20012;-96
2021/01/15 04:01:46;;;;;;;1999.90;999.90;;;1.60;99.90;;;;;;6289260;22;20019;-96
2021/01/15 04:04:41;;;;;;;1999.90;999.90;;;1.60;99.90;;;;;;6290792;22;20027;-96
2021/01/15 04:07:27;;;;;;;1999.90;999.90;;;1.60;99.90;;;;;;6291354;22;20019;-96
2021/01/15 04:10:04;;;;;;;;;;;;;;;;;;;;;
2021/01/15 04:19:53;;;;;;;1999.90;999.90;;;1.70;99.90;;;;;;6273046;22;20113;-96
2021/01/15 04:28:53;;;;;;;1999.90;999.90;;;1.70;99.90;;;;;;6290862;22;19929;-95
2021/01/15 04:31:33;;;;;;;1999.90;999.90;;;1.70;99.90;;;;;;6299756;22;20020;-95
2021/01/15 04:34:07;;;;;;;1999.90;999.90;;;1.80;99.90;;;;;;6280528;22;20094;-93
2021/01/15 04:36:52;;;;;;;1999.90;999.90;;;1.80;99.90;;;;;;6279761;22;20023;-93
2021/01/15 04:39:48;;;;;;;1999.90;999.90;;;1.80;99.90;;;;;;6279002;22;20026;-92
2021/01/15 04:42:25;;;;;;;1999.90;999.90;;;1.80;99.90;;;;;;6279145;22;20019;-94
2021/01/15 04:44:55;;;;;;;1999.90;999.90;;;1.80;99.90;;;;;;6280321;22;20098;-92
2021/01/15 04:47:24;;;;;;;1999.90;999.90;;;1.80;99.90;;;;;;6279077;22;20019;-96
2021/01/15 04:49:53;;;;;;;1999.90;999.90;;;1.80;99.90;;;;;;6279233;22;20012;-93
2021/01/15 04:52:39;;;;;;;1999.90;999.90;;;1.80;99.90;;;;;;6280443;22;20020;-96
2021/01/15 04:55:28;;;;;;;;;;;1.80;99.90;;;;;;6278885;22;20019;-93
2021/01/15 04:58:02;;;;;;;1999.90;999.90;;;1.80;99.90;;;;;;6278680;22;19915;-96
2021/01/15 05:00:30;;;;;;;1999.90;999.90;;;1.80;99.90;;;;;;6280378;22;20019;-96
2021/01/15 05:07:23;;;;;;;1999.90;999.90;;;1.80;99.90;;;;;;6126667;23;20094;-94
2021/01/15 05:10:03;;;;;;;1999.90;999.90;;;1.80;99.90;;;;;;6127039;23;20093;-95
2021/01/15 05:12:51;;;;;;;1999.90;999.90;;;1.80;99.90;;;;;;6129361;23;20033;-95
2021/01/15 05:15:19;;;;;;;1999.90;999.90;;;1.80;99.90;;;;;;6127682;23;20040;-96
2021/01/15 05:17:48;;;;;;;1999.90;999.90;;;1.80;99.90;;;;;;6128199;23;20093;-95
2021/01/15 05:20:23;;;;;;;1999.90;999.90;;;1.80;99.90;;;;;;6151353;22;20027;-95
2021/01/15 05:25:58;;;;;;;1999.90;999.90;;;1.80;99.90;;;;;;6294954;22;20031;-96
2021/01/15 05:35:46;;;;;;;;;;;1.90;99.90;;;;;;6217722;22;20019;-95
2021/01/15 05:39:05;;;;;;;1999.90;999.90;;;1.90;99.90;;;;;;6217265;23;19926;-95
2021/01/15 05:41:35;;;;;;;1999.90;999.90;;;1.90;99.90;;;;;;6110487;23;20427;-95
2021/01/15 05:44:02;;;;;;;1999.90;999.90;;;1.90;99.90;;;;;;6155863;23;20025;-95
2021/01/15 05:46:30;;;;;;;1999.90;999.90;;;1.90;99.90;;;;;;6255444;22;20019;-95
2021/01/15 05:49:19;;;;;;;1999.90;999.90;;;1.90;99.90;;;;;;6280816;22;20011;-95
2021/01/15 05:52:05;;;;;;;1999.90;999.90;;;1.90;99.90;;;;;;6279674;22;20054;-94
2021/01/15 05:54:47;;;;;;;1999.90;999.90;;;1.90;99.90;;;;;;6262378;22;20019;-96
2021/01/15 05:57:25;;;;;;;1999.90;999.90;;;1.90;99.90;;;;;;6282124;22;20038;-96
2021/01/15 05:59:55;;;;;;;1999.90;999.90;;;1.90;99.90;;;;;;6289864;22;20083;-96
2021/01/15 06:02:26;;;;;;;1999.90;999.90;;;1.90;99.90;;;;;;6284257;22;20098;-95
2021/01/15 06:05:05;;;;;;;1999.90;999.90;;;1.90;99.90;;;;;;6281179;22;20020;-95
2021/01/15 06:07:35;;;;;;;1999.90;999.90;;;1.90;99.90;;;;;;6280642;22;20020;-95
2021/01/15 06:10:04;;;;;;;1999.90;999.90;;;2.00;99.90;;;;;;6281758;22;20019;-96
2021/01/15 06:12:47;;;;;;;1999.90;999.90;;;2.00;99.90;;;;;;6280129;22;20039;-95
2021/01/15 06:15:15;;;;;;;1999.90;999.90;;;1.90;99.90;;;;;;6280827;22;20363;-95
2021/01/15 06:18:07;;;;;;;1999.90;999.90;;;2.00;99.90;;;;;;6279951;22;20026;-95
2021/01/15 06:20:35;;;;;;;1999.90;999.90;;;2.00;99.90;;;;;;6258607;22;20431;-95
2021/01/15 06:23:27;;;;;;;1999.90;999.90;;;2.00;99.90;;;;;;6281854;22;20070;-95
2021/01/15 06:26:13;;;;;;;1999.90;999.90;;;2.00;99.90;;;;;;6290849;22;20050;-96
2021/01/15 06:32:58;;;;;;;;;;;;;;;;;;;;;
2021/01/15 06:55:33;;;;;;;1999.90;999.90;;;2.00;99.90;;;;;;6135456;23;20016;-95
2021/01/15 06:58:14;;;;;;;1999.90;999.90;;;2.00;99.90;;;;;;6119279;23;20026;-95
2021/01/15 07:04:27;;;;;;;1999.90;999.90;;;2.00;99.90;;;;;;6255930;22;20035;-96
2021/01/15 07:07:15;;;;;;;1999.90;999.90;;;2.00;99.90;;;;;;6218457;22;20019;-96
2021/01/15 07:09:44;;;;;;;1999.90;999.90;;;2.00;99.90;;;;;;6281167;22;20012;-96
2021/01/15 07:12:23;;;;;;;1999.90;999.90;;;2.00;99.90;;;;;;6283395;22;20027;-96
2021/01/15 07:18:50;;;;;;;1999.90;999.90;;;2.00;99.90;;;;;;6157774;23;20017;-95
2021/01/15 07:21:22;;;;;;;1999.90;999.90;;;2.00;99.90;;;;;;6234470;22;20016;-96
2021/01/15 07:23:56;;;;;;;1999.90;999.90;;;2.00;99.90;;;;;;6280644;22;20016;-96
2021/01/15 07:26:24;;;;;;;1999.90;999.90;;;2.00;99.90;;;;;;6280755;22;20067;-95
2021/01/15 07:28:59;;;;;;;1999.90;999.90;;;2.00;99.90;;;;;;6280419;22;20065;-96
2021/01/15 07:31:38;;;;;;;1999.90;999.90;;;2.00;99.90;;;;;;6281307;22;20015;-96
2021/01/15 07:34:15;;;;;;;1999.90;999.90;;;2.00;99.90;;;;;;6281148;22;20485;-96
2021/01/15 07:36:43;;;;;;;1999.90;999.90;;;2.00;99.90;;;;;;6279939;22;20020;-96
2021/01/15 07:46:47;;;;;;;1999.90;999.90;;;2.00;99.90;;;;;;6285317;22;20042;-96
2021/01/15 07:49:14;;;;;;;1999.90;999.90;;;2.00;99.90;;;;;;6285483;22;20018;-96
2021/01/15 07:51:42;;;;;;;1999.90;999.90;;;2.00;99.90;;;;;;6284244;22;20374;-96
2021/01/15 07:54:10;;;;;;;1999.90;999.90;;;2.00;99.90;;;;;;6286181;22;20023;-96
2021/01/15 08:00:54;;;;;;;1999.90;999.90;;;2.00;99.90;;;;;;6286543;22;20058;-95
2021/01/15 08:03:24;;;;;;;1999.90;999.90;;;2.00;99.90;;;;;;6289620;22;20023;-96
2021/01/15 08:06:02;;;;;;;1999.90;999.90;;;2.10;99.90;;;;;;6288242;22;20034;-95
2021/01/15 08:08:58;;;;;;;1999.90;999.90;;;2.00;99.90;;;;;;6285604;22;20331;-96
2021/01/15 08:11:36;;;;;;;1999.90;999.90;;;2.00;99.90;;;;;;6290992;22;20419;-96
2021/01/15 08:14:21;;;;;;;1999.90;999.90;;;2.00;99.90;;;;;;6289335;22;20038;-96
2021/01/15 09:50:22;;;;;;;1999.90;999.90;;;2.30;99.90;;;;;;6294152;22;20020;-96
2021/01/15 10:06:59;;;;;;;1999.90;999.90;;;2.30;99.90;;;;;;6263824;22;20052;-96
2021/01/15 10:09:27;;;;;;;1999.90;999.90;;;2.30;99.90;;;;;;6282466;22;20383;-96
2021/01/15 10:11:55;;;;;;;1999.90;999.90;;;2.30;99.90;;;;;;6279809;22;20023;-96
2021/01/15 10:14:24;;;;;;;1999.90;999.90;;;2.30;99.90;;;;;;6279131;22;20020;-95
2021/01/15 10:16:54;;;;;;;1999.90;999.90;;;2.30;99.90;;;;;;6282589;22;20020;-96
2021/01/15 10:19:30;;;;;;;1999.90;999.90;;;2.30;99.90;;;;;;6282476;22;20047;-96
2021/01/15 10:21:59;;;;;;;1999.90;999.90;;;2.30;99.90;;;;;;6281583;22;20016;-96
2021/01/15 10:24:30;;;;;;;1999.90;999.90;;;2.30;99.90;;;;;;6277939;22;20020;-95
2021/01/15 10:26:59;;;;;;;1999.90;999.90;;;2.30;99.90;;;;;;6278379;22;20046;-96
2021/01/15 10:29:39;;;;;;;1999.90;999.90;;;2.30;99.90;;;;;;6279257;22;20065;-96
2021/01/15 10:32:13;;;;;;;1999.90;999.90;;;2.30;99.90;;;;;;6278376;22;20346;-96
2021/01/15 10:34:40;;;;;;;1999.90;999.90;;;2.30;99.90;;;;;;6278358;22;20378;-96
2021/01/15 10:37:10;;;;;;;1999.90;999.90;;;2.30;99.90;;;;;;6277840;22;20458;-96
2021/01/15 10:39:42;;;;;;;1999.90;999.90;;;2.30;99.90;;;;;;6279812;22;20012;-96
2021/01/15 10:42:15;;;;;;;1999.90;999.90;;;2.30;99.90;;;;;;6280259;22;20335;-96
2021/01/15 10:44:44;;;;;;;1999.90;999.90;;;2.40;99.90;;;;;;6280778;22;20027;-96
2021/01/15 10:47:20;;;;;;;1999.90;999.90;;;2.40;99.90;;;;;;6280998;22;20073;-96
2021/01/15 10:49:56;;;;;;;1999.90;999.90;;;2.40;99.90;;;;;;6281746;22;20039;-96
2021/01/15 10:52:32;;;;;;;1999.90;999.90;;;2.40;99.90;;;;;;6281097;22;20303;-96
2021/01/15 10:55:10;;;;;;;1999.90;999.90;;;2.50;99.90;;;;;;6281963;22;20085;-96
2021/01/15 10:57:50;;;;;;;1999.90;999.90;;;2.50;99.90;;;;;;6281147;22;20058;-96
2021/01/15 11:00:22;;;;;;;1999.90;999.90;;;2.50;99.90;;;;;;6280606;22;20020;-96
2021/01/15 11:02:59;;;;;;;1999.90;999.90;;;2.50;99.90;;;;;;6280806;22;20127;-96
2021/01/15 11:05:34;;;;;;;1999.90;999.90;;;2.60;99.90;;;;;;6280908;22;20020;-96
2021/01/15 11:08:07;;;;;;;1999.90;999.90;;;2.60;99.90;;;;;;6280026;22;20024;-96
2021/01/15 11:10:41;;;;;;;1999.90;999.90;;;2.60;99.90;;;;;;6281026;22;20504;-96
2021/01/15 11:13:08;;;;;;;1999.90;999.90;;;2.60;99.90;;;;;;6280626;22;20431;-96
2021/01/15 11:15:37;;;;;;;1999.90;999.90;;;2.60;99.90;;;;;;6280835;22;20090;-96
2021/01/15 11:18:06;;;;;;;1999.90;999.90;;;2.60;99.90;;;;;;6280760;22;20308;-96
2021/01/15 11:20:43;;;;;;;1999.90;999.90;;;2.60;99.90;;;;;;6280562;22;20011;-96
2021/01/15 11:23:17;;;;;;;1999.90;999.90;;;2.70;99.90;;;;;;6280479;22;20022;-96
2021/01/15 11:25:46;;;;;;;1999.90;999.90;;;2.60;99.90;;;;;;6281298;22;20043;-96
2021/01/15 11:28:43;;;;;;;1999.90;999.90;;;2.60;99.90;;;;;;6281138;22;20019;-96
2021/01/15 11:31:22;;;;;;;1999.90;999.90;;;2.70;99.90;;;;;;6281111;22;20026;-96
2021/01/15 11:33:50;;;;;;;1999.90;999.90;;;2.70;99.90;;;;;;6280549;22;20019;-95
2021/01/15 11:36:33;;;;;;;1999.90;999.90;;;2.70;99.90;;;;;;6280032;22;20019;-96
2021/01/15 11:39:09;;;;;;;1999.90;999.90;;;2.70;99.90;;;;;;6280746;22;20015;-96
2021/01/15 11:41:56;;;;;;;1999.90;999.90;;;2.70;99.90;;;;;;6280113;22;20015;-96
2021/01/15 11:44:46;;;;;;;1999.90;999.90;;;2.70;99.90;;;;;;6279227;22;20077;-96
2021/01/15 11:47:22;;;;;;;1999.90;999.90;;;2.80;99.90;;;;;;6279735;22;20061;-96
2021/01/15 11:49:52;;;;;;;1999.90;999.90;;;2.80;99.90;;;;;;6280194;22;20016;-96
2021/01/15 11:52:27;;;;;;;1999.90;999.90;;;2.80;99.90;;;;;;6280001;22;20284;-96
2021/01/15 11:55:01;;;;;;;1999.90;999.90;;;2.80;99.90;;;;;;6279656;22;20376;-96
2021/01/15 11:57:43;;;;;;;1999.90;999.90;;;2.80;99.90;;;;;;6280725;22;20043;-96
2021/01/15 12:00:20;;;;;;;1999.90;999.90;;;2.80;99.90;;;;;;6281408;22;20022;-96
2021/01/15 12:02:53;;;;;;;1999.90;999.90;;;2.80;99.90;;;;;;6282567;22;20027;-96
2021/01/15 12:05:28;;;;;;;1999.90;999.90;;;2.80;99.90;;;;;;6283946;22;20015;-96
2021/01/15 12:08:02;;;;;;;;;;;2.90;99.90;;;;;;6283615;22;20024;-96
2021/01/15 12:10:33;;;;;;;1999.90;999.90;;;2.90;99.90;;;;;;6284955;22;19915;-96
2021/01/15 12:13:12;;;;;;;1999.90;999.90;;;2.80;99.90;;;;;;6282839;22;20102;-96
2021/01/15 12:15:49;;;;;;;1999.90;999.90;;;2.80;99.90;;;;;;6283752;22;20094;-96
2021/01/15 12:18:21;;;;;;;1999.90;999.90;;;2.80;99.90;;;;;;6284983;22;20035;-96
2021/01/15 12:20:55;;;;;;;1999.90;999.90;;;2.90;99.90;;;;;;6288107;22;20069;-96
2021/01/15 12:23:28;;;;;;;1999.90;999.90;;;2.90;99.90;;;;;;6292013;22;20016;-96
2021/01/15 12:26:10;;;;;;;1999.90;999.90;;;2.90;99.90;;;;;;6292850;22;20019;-96
2021/01/15 12:28:47;;;;;;;;;;;;;;;;;;;;;
2021/01/15 12:31:22;;;;;;;1999.90;999.90;;;2.90;99.90;;;;;;6293365;22;20046;-96
2021/01/15 12:33:58;;;;;;;1999.90;999.90;;;2.90;99.90;;;;;;6292708;22;20039;-96
2021/01/15 12:36:51;;;;;;;1999.90;999.90;;;3.00;99.90;;;;;;6283308;22;20032;-96
2021/01/15 12:39:53;;;;;;;1999.90;999.90;;;3.00;99.90;;;;;;6280299;22;20015;-96
2021/01/15 12:42:33;;;;;;;1999.90;999.90;;;3.00;99.90;;;;;;6282392;22;20019;-96
2021/01/15 12:45:05;;;;;;;1999.90;999.90;;;3.00;99.90;;;;;;6287904;22;20317;-96
2021/01/15 12:47:39;;;;;;;1999.90;999.90;;;3.00;99.90;;;;;;6289072;22;20257;-96
2021/01/15 12:50:09;;;;;;;1999.90;999.90;;;3.00;99.90;;;;;;6292492;22;20031;-96
2021/01/15 12:52:42;;;;;;;1999.90;999.90;;;3.00;99.90;;;;;;6294413;22;20019;-96
2021/01/15 12:55:28;;;;;;;1999.90;999.90;;;3.10;99.90;;;;;;6291620;22;20051;-96
2021/01/15 12:58:04;;;;;;;1999.90;999.90;;;3.10;99.90;;;;;;6293337;22;20032;-96
2021/01/15 13:00:44;;;;;;;1999.90;999.90;;;3.10;99.90;;;;;;6296985;22;20016;-96
2021/01/15 13:03:30;;;;;;;1999.90;999.90;;;3.20;99.90;;;;;;6293064;22;20020;-96
2021/01/15 13:06:12;;;;;;;1999.90;999.90;;;3.20;99.90;;;;;;6293508;22;20046;-96
2021/01/15 13:08:47;;;;;;;1999.90;999.90;;;3.20;99.90;;;;;;6291740;22;20023;-96
2021/01/15 13:11:29;;;;;;;1999.90;999.90;;;3.20;99.90;;;;;;6293590;22;20427;-96
2021/01/15 13:14:04;;;;;;;1999.90;999.90;;;3.20;99.90;;;;;;6289111;22;20354;-96
2021/01/15 13:16:32;;;;;;;1999.90;999.90;;;3.20;99.90;;;;;;6286368;22;20069;-95
2021/01/15 13:19:12;;;;;;;1999.90;999.90;;;3.20;99.90;;;;;;6287667;22;20050;-96
2021/01/15 13:21:50;;;;;;;1999.90;999.90;;;3.20;99.90;;;;;;6289146;22;20027;-96
2021/01/15 13:24:26;;;;;;;1999.90;999.90;;;3.20;99.90;;;;;;6282483;22;20019;-96
2021/01/15 13:27:18;;;;;;;1999.90;999.90;;;3.20;99.90;;;;;;6280356;22;20424;-96
2021/01/15 13:29:46;;;;;;;1999.90;999.90;;;3.30;99.90;;;;;;6279544;22;20374;-96
2021/01/15 13:32:24;;;;;;;1999.90;999.90;;;3.30;99.90;;;;;;6279397;22;20026;-96
2021/01/15 13:34:56;;;;;;;1999.90;999.90;;;3.30;99.90;;;;;;6280439;22;20063;-96
2021/01/15 13:37:53;;;;;;;1999.90;999.90;;;3.20;99.90;;;;;;6280480;22;20094;-96
2021/01/15 13:40:35;;;;;;;1999.90;999.90;;;3.30;99.90;;;;;;6280136;22;20022;-96
2021/01/15 13:43:09;;;;;;;1999.90;999.90;;;3.30;99.90;;;;;;6280243;22;20020;-96
2021/01/15 13:45:45;;;;;;;;;;;3.30;99.90;;;;;;6279998;22;20427;-96
2021/01/15 13:48:22;;;;;;;1999.90;999.90;;;3.30;99.90;;;;;;6279507;22;19922;-96
2021/01/15 13:51:05;;;;;;;1999.90;999.90;;;3.30;99.90;;;;;;6280181;22;20022;-96
2021/01/15 13:53:52;;;;;;;1999.90;999.90;;;3.30;99.90;;;;;;6281143;22;20021;-96
2021/01/15 13:56:32;;;;;;;1999.90;999.90;;;3.30;99.90;;;;;;6280890;22;20110;-96
2021/01/15 13:59:17;;;;;;;1999.90;999.90;;;3.30;99.90;;;;;;6280221;22;20020;-96
2021/01/15 14:01:45;;;;;;;1999.90;999.90;;;3.20;99.90;;;;;;6279040;22;20015;-96
2021/01/15 14:04:43;;;;;;;1999.90;999.90;;;3.30;99.90;;;;;;6279730;22;20310;-96
2021/01/15 14:07:13;;;;;;;1999.90;999.90;;;3.30;99.90;;;;;;6280487;22;20371;-96
2021/01/15 14:09:51;;;;;;;1999.90;999.90;;;3.30;99.90;;;;;;6279665;22;20039;-96
2021/01/15 14:23:39;;;;;;;1999.90;999.90;;;3.40;99.90;;;;;;6276386;22;20051;-95
2021/01/15 14:26:24;;;;;;;1999.90;999.90;;;3.40;99.90;;;;;;6265133;22;20024;-95
2021/01/15 14:28:56;;;;;;;1999.90;999.90;;;3.40;99.90;;;;;;6280305;22;20457;-96
2021/01/15 14:31:41;;;;;;;1999.90;999.90;;;3.40;99.90;;;;;;6281180;22;20046;-95
2021/01/15 14:34:15;;;;;;;1999.90;999.90;;;3.40;99.90;;;;;;6280859;22;20073;-95
2021/01/15 14:36:47;;;;;;;1999.90;999.90;;;3.40;99.90;;;;;;6281558;22;20024;-95
2021/01/15 14:39:25;;;;;;;1999.90;999.90;;;3.40;99.90;;;;;;6279915;22;20095;-95
2021/01/15 14:41:55;;;;;;;1999.90;999.90;;;3.40;99.90;;;;;;6281008;22;20027;-95
2021/01/15 14:44:22;;;;;;;1999.90;999.90;;;3.40;99.90;;;;;;6280261;22;20031;-96
2021/01/15 14:47:06;;;;;;;;;;;;;;;;;;;;;
2021/01/15 14:49:44;;;;;;;1999.90;999.90;;;3.50;99.90;;;;;;6281181;22;20016;-95
2021/01/15 14:52:22;;;;;;;1999.90;999.90;;;3.50;99.90;;;;;;6279783;22;20033;-95
2021/01/15 14:55:03;;;;;;;1999.90;999.90;;;3.40;99.90;;;;;;6280929;22;20099;-94
2021/01/15 14:57:31;;;;;;;1999.90;999.90;;;3.50;99.90;;;;;;6280440;22;20019;-94
2021/01/15 15:00:14;;;;;;;1999.90;999.90;;;3.50;99.90;;;;;;6279998;22;20016;-95
2021/01/15 15:02:47;;;;;;;1999.90;999.90;;;3.50;99.90;;;;;;6280293;22;20090;-96
2021/01/15 15:05:34;;;;;;;1999.90;999.90;;;3.50;99.90;;;;;;6279794;22;20034;-95
2021/01/15 15:08:03;;;;;;;1999.90;999.90;;;3.50;99.90;;;;;;6280082;22;20074;-95
2021/01/15 15:10:30;;;;;;;1999.90;999.90;;;3.50;99.90;;;;;;6279229;22;20415;-94
2021/01/15 15:13:05;;;;;;;1999.90;999.90;;;3.50;99.90;;;;;;6280577;22;20035;-95
2021/01/15 15:15:43;;;;;;;;;;;3.50;99.90;;;;;;6280408;22;20419;-95
2021/01/15 15:18:16;;;;;;;1999.90;999.90;;;3.50;99.90;;;;;;6278983;22;20219;-95
2021/01/15 15:20:46;;;;;;;1999.90;999.90;;;3.50;99.90;;;;;;6280671;22;20019;-95
2021/01/15 15:23:21;;;;;;;1999.90;999.90;;;3.40;99.90;;;;;;6280148;22;20308;-95
2021/01/15 15:25:50;;;;;;;1999.90;999.90;;;3.40;99.90;;;;;;6280039;22;20110;-95
2021/01/15 15:28:17;;;;;;;1999.90;999.90;;;3.50;99.90;;;;;;6280769;22;20039;-95
2021/01/15 15:30:49;;;;;;;1999.90;999.90;;;3.40;99.90;;;;;;6280424;22;20012;-94
2021/01/15 15:33:21;;;;;;;1999.90;999.90;;;3.40;99.90;;;;;;6279402;22;20020;-95
2021/01/15 15:35:53;;;;;;;1999.90;999.90;;;3.40;99.90;;;;;;6279761;22;20019;-95
2021/01/15 15:38:27;;;;;;;1999.90;999.90;;;3.40;99.90;;;;;;6280089;22;20107;-95
2021/01/15 15:40:56;;;;;;;1999.90;999.90;;;3.40;99.90;;;;;;6281098;22;20372;-96
2021/01/15 15:43:31;;;;;;;1999.90;999.90;;;3.40;99.90;;;;;;6283416;22;20020;-95
2021/01/15 15:45:59;;;;;;;1999.90;999.90;;;3.40;99.90;;;;;;6281130;22;20091;-95
2021/01/15 15:48:28;;;;;;;1999.90;999.90;;;3.40;99.90;;;;;;6279756;22;20015;-95
2021/01/15 15:50:57;;;;;;;1999.90;999.90;;;3.40;99.90;;;;;;6280598;22;20098;-95
2021/01/15 15:53:33;;;;;;;1999.90;999.90;;;3.40;99.90;;;;;;6280717;22;20050;-95
2021/01/15 15:56:03;;;;;;;1999.90;999.90;;;3.40;99.90;;;;;;6279616;22;20026;-95
2021/01/15 15:58:41;;;;;;;1999.90;999.90;;;3.40;99.90;;;;;;6280326;22;20015;-95
2021/01/15 16:01:12;;;;;;;1999.90;999.90;;;3.40;99.90;;;;;;6280675;22;20022;-96
2021/01/15 16:03:45;;;;;;;1999.90;999.90;;;3.30;99.90;;;;;;6289176;22;20020;-96
2021/01/15 16:06:20;;;;;;;1999.90;999.90;;;3.40;99.90;;;;;;6288887;22;20394;-96
2021/01/15 16:08:53;;;;;;;1999.90;999.90;;;3.30;99.90;;;;;;6289548;22;20022;-96
2021/01/15 16:11:40;;;;;;;1999.90;999.90;;;3.30;99.90;;;;;;6288825;22;20031;-96
2021/01/15 16:14:10;;;;;;;1999.90;999.90;;;3.30;99.90;;;;;;6290419;22;20450;-96
2021/01/15 16:16:42;;;;;;;1999.90;999.90;;;3.30;99.90;;;;;;6286457;22;20026;-96
2021/01/15 16:19:12;;;;;;;1999.90;999.90;;;3.30;99.90;;;;;;6286218;22;20058;-96
2021/01/15 16:21:47;;;;;;;1999.90;999.90;;;3.30;99.90;;;;;;6285431;22;20016;-96
2021/01/15 16:24:22;;;;;;;1999.90;999.90;;;3.20;99.90;;;;;;6287418;22;20049;-96
2021/01/15 16:27:04;;;;;;;1999.90;999.90;;;3.20;99.90;;;;;;6287565;22;20047;-96
2021/01/15 16:32:57;;;;;;;1999.90;999.90;;;3.10;99.90;;;;;;6298184;22;20019;-96
2021/01/15 16:35:32;;;;;;;1999.90;999.90;;;3.20;99.90;;;;;;6290825;22;20055;-96
2021/01/15 16:38:23;;;;;;;1999.90;999.90;;;3.10;99.90;;;;;;6290464;22;20039;-96
2021/01/15 16:41:04;;;;;;;1999.90;999.90;;;3.10;99.90;;;;;;6289934;22;20016;-96
2021/01/15 16:43:39;;;;;;;1999.90;999.90;;;3.10;99.90;;;;;;6291710;22;20019;-96
2021/01/15 16:46:20;;;;;;;1999.90;999.90;;;3.10;99.90;;;;;;6289860;22;20020;-96
2021/01/15 16:48:54;;;;;;;1999.90;999.90;;;3.10;99.90;;;;;;6284787;22;20019;-95
2021/01/15 16:51:22;;;;;;;1999.90;999.90;;;3.10;99.90;;;;;;6282015;22;20122;-96
2021/01/15 17:08:19;;;;;;;1999.90;999.90;;;3.00;99.90;;;;;;6298141;22;20054;-96
2021/01/15 17:10:58;;;;;;;1999.90;999.90;;;3.00;99.90;;;;;;6290185;22;20016;-96
2021/01/15 17:13:54;;;;;;;1999.90;999.90;;;3.00;99.90;;;;;;6299795;22;20004;-96
2021/01/15 17:17:01;;;;;;;1999.90;999.90;;;3.00;99.90;;;;;;6296195;22;20019;-96
2021/01/15 17:20:10;;;;;;;1999.90;999.90;;;3.00;99.90;;;;;;6295548;22;20030;-96
2021/01/15 17:26:59;;;;;;;1999.90;999.90;;;3.00;99.90;;;;;;6296661;22;20019;-96
2021/01/15 17:37:49;;;;;;;1999.90;999.90;;;2.90;99.90;;;;;;6299618;22;20023;-96
2021/01/15 17:44:36;;;;;;;;;;;;;;;;;;;;;
2021/01/15 18:36:45;;;;;;;1999.90;999.90;;;2.90;99.90;;;;;;6290819;22;20020;-96
2021/01/15 18:39:51;;;;;;;1999.90;999.90;;;2.90;99.90;;;;;;6268300;22;20020;-96
2021/01/15 18:45:50;;;;;;;1999.90;999.90;;;2.90;99.90;;;;;;6266272;23;20020;-96
2021/01/15 18:55:43;;;;;;;1999.90;999.90;;;2.90;99.90;;;;;;6137453;23;20109;-96
2021/01/15 18:58:21;;;;;;;;;;;;;;;;;;;;;
2021/01/15 19:01:21;;;;;;;1999.90;999.90;;;2.80;99.90;;;;;;6145341;23;20018;-96
2021/01/15 19:04:02;;;;;;;1999.90;999.90;;;2.80;99.90;;;;;;6142966;23;20028;-93
2021/01/15 19:06:29;;;;;;;1999.90;999.90;;;2.80;99.90;;;;;;6138414;23;20073;-93
2021/01/15 19:08:56;;;;;;;1999.90;999.90;;;2.80;99.90;;;;;;6130118;23;20029;-93
2021/01/15 19:11:25;;;;;;;1999.90;999.90;;;2.80;99.90;;;;;;6128779;23;20181;-93
2021/01/15 19:13:54;;;;;;;1999.90;999.90;;;2.70;99.90;;;;;;6206171;23;20026;-94
2021/01/15 19:16:25;;;;;;;1999.90;999.90;;;2.70;99.90;;;;;;6250677;23;20457;-94
2021/01/15 19:18:52;;;;;;;1999.90;999.90;;;2.80;99.90;;;;;;6249453;23;20016;-94
2021/01/15 19:21:23;;;;;;;1999.90;999.90;;;2.80;99.90;;;;;;6250654;23;20016;-93
2021/01/15 19:23:53;;;;;;;1999.90;999.90;;;2.70;99.90;;;;;;6250061;23;20020;-94
2021/01/15 19:26:21;;;;;;;1999.90;999.90;;;2.70;99.90;;;;;;6249603;22;20024;-95
2021/01/15 19:28:52;;;;;;;1999.90;999.90;;;2.70;99.90;;;;;;6249553;23;20016;-94
2021/01/15 19:31:23;;;;;;;1999.90;999.90;;;2.70;99.90;;;;;;6250117;23;20347;-94
2021/01/15 19:33:51;;;;;;;1999.90;999.90;;;2.70;99.90;;;;;;6248925;23;20020;-92
2021/01/15 19:36:43;;;;;;;1999.90;999.90;;;2.80;99.90;;;;;;6254124;22;20043;-96
2021/01/15 19:39:12;;;;;;;1999.90;999.90;;;2.80;99.90;;;;;;6249814;23;20020;-92
2021/01/15 19:41:40;;;;;;;1999.90;999.90;;;2.80;99.90;;;;;;6253374;23;20020;-92
2021/01/15 19:44:09;;;;;;;1999.90;999.90;;;2.80;99.90;;;;;;6253618;23;20020;-92
2021/01/15 19:46:39;;;;;;;1999.90;999.90;;;2.80;99.90;;;;;;6248731;23;20047;-92
2021/01/15 19:49:07;;;;;;;1999.90;999.90;;;2.80;99.90;;;;;;6249082;23;20020;-92
2021/01/15 19:51:34;;;;;;;1999.90;999.90;;;2.80;99.90;;;;;;6248913;23;20074;-93
2021/01/15 19:54:05;;;;;;;1999.90;999.90;;;2.80;99.90;;;;;;6249362;23;20086;-91
2021/01/15 19:56:32;;;;;;;1999.90;999.90;;;2.80;99.90;;;;;;6248909;23;20023;-93
2021/01/15 19:59:01;;;;;;;1999.90;999.90;;;2.80;99.90;;;;;;6248273;23;20024;-92
2021/01/15 20:01:29;;;;;;;1999.90;999.90;;;2.80;99.90;;;;;;6248806;23;20090;-93
2021/01/15 20:03:56;;;;;;;1999.90;999.90;;;2.80;99.90;;;;;;6248660;23;20020;-93
2021/01/15 20:06:29;;;;;;;1999.90;999.90;;;2.80;99.90;;;;;;6247981;23;20027;-92
2021/01/15 20:08:59;;;;;;;1999.90;999.90;;;2.80;99.90;;;;;;6248863;23;20391;-92
2021/01/15 20:11:30;;;;;;;1999.90;999.90;;;2.80;99.90;;;;;;6263327;23;20431;-96
2021/01/15 20:14:00;;;;;;;1999.90;999.90;;;2.80;99.90;;;;;;6251735;23;20028;-95
2021/01/15 20:16:29;;;;;;;1999.90;999.90;;;2.80;99.90;;;;;;6249326;23;20027;-95
2021/01/15 20:18:56;;;;;;;1999.90;999.90;;;2.80;99.90;;;;;;6248908;23;20027;-93
2021/01/15 20:21:24;;;;;;;1999.90;999.90;;;2.80;99.90;;;;;;6248620;23;20078;-93
2021/01/15 20:23:51;;;;;;;1999.90;999.90;;;2.70;99.90;;;;;;6248276;23;20289;-94
2021/01/15 20:26:20;;;;;;;1999.90;999.90;;;2.80;99.90;;;;;;6249279;23;20016;-93
2021/01/15 20:28:47;;;;;;;1999.90;999.90;;;2.80;99.90;;;;;;6248562;23;20023;-93
2021/01/15 20:31:18;;;;;;;1999.90;999.90;;;2.80;99.90;;;;;;6248027;23;20066;-93
2021/01/15 20:33:47;;;;;;;1999.90;999.90;;;2.70;99.90;;;;;;6248336;23;20067;-93
2021/01/15 20:36:15;;;;;;;1999.90;999.90;;;2.70;99.90;;;;;;6248368;23;20035;-94
2021/01/15 20:38:51;;;;;;;1999.90;999.90;;;2.70;99.90;;;;;;6273544;22;20030;-93
2021/01/15 20:41:22;;;;;;;1999.90;999.90;;;2.70;99.90;;;;;;6278798;22;20385;-93
2021/01/15 20:43:50;;;;;;;1999.90;999.90;;;2.70;99.90;;;;;;6278911;22;20020;-93
2021/01/15 20:46:17;;;;;;;1999.90;999.90;;;2.70;99.90;;;;;;6280940;22;20078;-92